createdAt,value
2023-01-30T00:00:43.086Z,-1.45
2023-01-30T00:03:46.638Z,-1.45
2023-01-30T00:06:49.001Z,-1.51
2023-01-30T00:09:51.632Z,-1.51
2023-01-30T00:12:53.933Z,-1.54
2023-01-30T00:15:56.605Z,-1.76
2023-01-30T00:18:59.010Z,-1.66
2023-01-30T00:22:01.803Z,-1.71
2023-01-30T00:25:04.608Z,-1.65
2023-01-30T00:28:07.372Z,-1.72
2023-01-30T00:31:10.370Z,-1.68
2023-01-30T00:34:13.015Z,-1.69
2023-01-30T00:37:15.466Z,-1.77
2023-01-30T00:40:18.813Z,-1.89
2023-01-30T00:43:40.774Z,-2.01
2023-01-30T00:47:02.219Z,-1.86
2023-01-30T00:50:05.305Z,-2.01
2023-01-30T00:53:15.346Z,-1.85
2023-01-30T00:56:17.731Z,-1.91
2023-01-30T00:59:20.380Z,-1.68
2023-01-30T01:02:22.810Z,-1.78
2023-01-30T01:05:26.176Z,-1.65
2023-01-30T01:08:28.653Z,-1.75
2023-01-30T01:11:31.856Z,-1.72
2023-01-30T01:14:34.821Z,-1.69
2023-01-30T01:17:38.018Z,-1.71
2023-01-30T01:20:40.430Z,-1.73
2023-01-30T01:23:43.115Z,-1.44
2023-01-30T01:26:45.598Z,-1.75
2023-01-30T01:29:48.356Z,-1.68
2023-01-30T01:32:51.511Z,-1.72
2023-01-30T01:35:57.359Z,-1.61
2023-01-30T01:38:59.797Z,-1.68
2023-01-30T01:42:02.398Z,-1.62
2023-01-30T01:45:13.093Z,-1.88
2023-01-30T01:48:22.565Z,-1.65
2023-01-30T01:51:40.792Z,-1.74
2023-01-30T01:54:46.232Z,-1.67
2023-01-30T01:57:57.068Z,-1.68
2023-01-30T02:01:01.930Z,-1.70
2023-01-30T02:04:09.101Z,-1.85
2023-01-30T02:07:11.544Z,-1.91
2023-01-30T02:10:19.362Z,-1.92
2023-01-30T02:13:23.089Z,-1.95
2023-01-30T02:16:25.509Z,-1.77
2023-01-30T02:19:50.910Z,-1.80
2023-01-30T02:23:30.743Z,-1.70
2023-01-30T02:26:55.374Z,-1.93
2023-01-30T02:30:15.981Z,-1.86
2023-01-30T02:33:57.418Z,-1.83
2023-01-30T02:37:21.847Z,-1.80
2023-01-30T02:40:36.690Z,-1.83
2023-01-30T02:43:54.097Z,-1.90
2023-01-30T02:47:06.675Z,-1.96
2023-01-30T02:50:42.001Z,-2.04
2023-01-30T02:53:48.382Z,-1.97
2023-01-30T02:56:53.509Z,-2.04
2023-01-30T03:00:01.823Z,-2.01
2023-01-30T03:03:40.591Z,-2.27
2023-01-30T03:07:16.565Z,-2.11
2023-01-30T03:10:31.880Z,-2.12
2023-01-30T03:14:11.370Z,-2.09
2023-01-30T03:17:17.219Z,-2.20
2023-01-30T03:20:20.756Z,-2.22
2023-01-30T03:23:23.219Z,-2.07
2023-01-30T03:26:33.113Z,-2.14
2023-01-30T03:29:35.706Z,-2.06
2023-01-30T03:32:38.368Z,-1.83
2023-01-30T03:35:42.576Z,-1.80
2023-01-30T03:38:48.362Z,-1.89
2023-01-30T03:41:53.048Z,-1.86
2023-01-30T03:44:56.312Z,-1.88
2023-01-30T03:47:58.721Z,-2.16
2023-01-30T03:51:01.467Z,-1.97
2023-01-30T03:54:04.633Z,-2.09
2023-01-30T03:57:07.555Z,-2.13
2023-01-30T04:00:10.676Z,-2.23
2023-01-30T04:03:18.792Z,-2.08
2023-01-30T04:06:21.601Z,-2.09
2023-01-30T04:09:24.717Z,-2.11
2023-01-30T04:12:27.675Z,-2.16
2023-01-30T04:15:30.350Z,-2.18
2023-01-30T04:18:33.921Z,-2.47
2023-01-30T04:21:36.407Z,-2.30
2023-01-30T04:24:39.288Z,-2.37
2023-01-30T04:27:41.991Z,-2.28
2023-01-30T04:30:45.511Z,-2.22
2023-01-30T04:33:48.837Z,-2.24
2023-01-30T04:36:51.572Z,-2.19
2023-01-30T04:39:54.057Z,-2.12
2023-01-30T04:42:57.216Z,-2.08
2023-01-30T04:46:02.339Z,-2.15
2023-01-30T04:49:05.174Z,-2.15
2023-01-30T04:52:07.582Z,-2.12
2023-01-30T04:55:11.788Z,-2.11
2023-01-30T04:58:15.116Z,-2.11
2023-01-30T05:01:25.261Z,-2.07
2023-01-30T05:04:27.753Z,-2.04
2023-01-30T05:07:30.444Z,-1.96
2023-01-30T05:10:32.899Z,-1.95
2023-01-30T05:13:35.610Z,-1.91
2023-01-30T05:16:37.953Z,-1.91
2023-01-30T05:19:40.528Z,-1.95
2023-01-30T05:22:42.807Z,-1.93
2023-01-30T05:25:45.447Z,-2.07
2023-01-30T05:28:55.828Z,-2.16
2023-01-30T05:31:58.478Z,-2.21
2023-01-30T05:35:01.125Z,-2.04
2023-01-30T05:38:03.951Z,-2.02
2023-01-30T05:41:08.345Z,-2.16
2023-01-30T05:44:13.013Z,-2.16
2023-01-30T05:47:15.333Z,-2.06
2023-01-30T05:50:18.232Z,-1.93
2023-01-30T05:53:22.302Z,-2.06
2023-01-30T05:56:25.240Z,-2.11
2023-01-30T05:59:27.565Z,-1.96
2023-01-30T06:02:31.381Z,-2.01
2023-01-30T06:08:36.453Z,-1.88
2023-01-30T06:11:39.236Z,-1.86
2023-01-30T06:14:41.726Z,-2.13
2023-01-30T06:17:44.432Z,-2.02
2023-01-30T06:20:51.280Z,-2.28
2023-01-30T06:23:53.934Z,-2.11
2023-01-30T06:26:56.388Z,-1.97
2023-01-30T06:29:59.101Z,-1.99
2023-01-30T06:33:01.515Z,-2.03
2023-01-30T06:36:04.566Z,-2.02
2023-01-30T06:39:06.961Z,-2.04
2023-01-30T06:42:09.635Z,-2.03
2023-01-30T06:45:13.421Z,-2.24
2023-01-30T06:48:16.103Z,-2.13
2023-01-30T06:51:18.557Z,-1.95
2023-01-30T06:54:21.145Z,-1.82
2023-01-30T06:57:23.484Z,-1.80
2023-01-30T07:00:26.111Z,-1.72
2023-01-30T07:03:28.596Z,-1.62
2023-01-30T07:06:31.681Z,-1.54
2023-01-30T07:09:33.986Z,-1.41
2023-01-30T07:12:37.005Z,-1.23
2023-01-30T07:15:39.419Z,-1.23
2023-01-30T07:18:42.044Z,-1.15
2023-01-30T07:21:44.413Z,-1.02
2023-01-30T07:24:47.072Z,-0.86
2023-01-30T07:27:58.180Z,-0.83
2023-01-30T07:31:01.441Z,-0.85
2023-01-30T07:34:03.823Z,-0.70
2023-01-30T07:37:06.617Z,-0.72
2023-01-30T07:40:10.333Z,-0.60
2023-01-30T07:43:13.782Z,-0.56
2023-01-30T07:46:16.375Z,-0.48
2023-01-30T07:49:18.989Z,-0.39
2023-01-30T07:52:21.353Z,-0.65
2023-01-30T07:55:24.300Z,-0.31
2023-01-30T07:58:26.678Z,-0.28
2023-01-30T08:01:29.453Z,-0.22
2023-01-30T08:04:32.347Z,-0.30
2023-01-30T08:07:34.771Z,-0.28
2023-01-30T08:10:37.462Z,0.05
2023-01-30T08:13:39.870Z,0.14
2023-01-30T08:16:42.605Z,0.26
2023-01-30T08:19:45.000Z,0.28
2023-01-30T08:22:47.647Z,0.35
2023-01-30T08:25:49.973Z,0.16
2023-01-30T08:28:55.926Z,0.36
2023-01-30T08:31:59.555Z,0.35
2023-01-30T08:35:02.321Z,0.44
2023-01-30T08:38:08.986Z,0.68
2023-01-30T08:41:11.837Z,0.69
2023-01-30T08:44:14.253Z,0.55
2023-01-30T08:47:16.914Z,0.44
2023-01-30T08:50:19.622Z,0.52
2023-01-30T08:53:23.334Z,0.39
2023-01-30T08:56:26.881Z,0.42
2023-01-30T08:59:29.799Z,0.54
2023-01-30T09:02:32.422Z,0.58
2023-01-30T09:05:35.171Z,0.41
2023-01-30T09:08:37.597Z,0.57
2023-01-30T09:11:40.180Z,0.27
2023-01-30T09:14:42.600Z,0.53
2023-01-30T09:17:45.262Z,0.60
2023-01-30T09:20:47.817Z,0.42
2023-01-30T09:23:50.702Z,0.52
2023-01-30T09:26:54.116Z,0.56
2023-01-30T09:29:56.883Z,0.57
2023-01-30T09:32:59.240Z,0.50
2023-01-30T09:36:01.940Z,0.61
2023-01-30T09:39:04.465Z,0.57
2023-01-30T09:42:13.141Z,0.56
2023-01-30T09:45:30.924Z,0.79
2023-01-30T09:48:43.344Z,0.67
2023-01-30T09:51:55.966Z,0.59
2023-01-30T09:55:26.598Z,0.82
2023-01-30T09:58:54.990Z,0.69
2023-01-30T10:02:24.367Z,0.57
2023-01-30T10:05:51.375Z,0.56
2023-01-30T10:09:37.025Z,0.63
2023-01-30T10:13:14.794Z,0.77
2023-01-30T10:16:27.765Z,1.04
2023-01-30T10:19:55.120Z,1.09
2023-01-30T10:23:02.179Z,1.09
2023-01-30T10:26:15.372Z,1.62
2023-01-30T10:29:26.649Z,1.54
2023-01-30T10:32:41.775Z,1.51
2023-01-30T10:35:44.895Z,1.72
2023-01-30T10:38:50.743Z,1.77
2023-01-30T10:42:07.007Z,1.69
2023-01-30T10:45:37.009Z,2.02
2023-01-30T10:48:54.466Z,1.88
2023-01-30T10:52:29.681Z,1.97
2023-01-30T10:55:44.638Z,1.75
2023-01-30T10:59:16.144Z,1.88
2023-01-30T11:02:33.120Z,1.81
2023-01-30T11:05:50.963Z,1.97
2023-01-30T11:08:54.958Z,1.78
2023-01-30T11:12:00.334Z,1.63
2023-01-30T11:15:05.955Z,1.72
2023-01-30T11:19:14.026Z,1.65
2023-01-30T11:21:43.616Z,1.89
2023-01-30T11:24:47.016Z,1.80
2023-01-30T11:28:06.345Z,1.99
2023-01-30T11:31:40.367Z,1.61
2023-01-30T11:34:44.118Z,1.85
2023-01-30T11:37:46.977Z,1.70
2023-01-30T11:40:49.546Z,1.77
2023-01-30T11:44:00.629Z,1.86
2023-01-30T11:47:26.532Z,1.83
2023-01-30T11:50:44.878Z,2.08
2023-01-30T11:53:54.343Z,2.14
2023-01-30T11:56:59.032Z,2.12
2023-01-30T12:00:01.676Z,2.13
2023-01-30T12:03:18.511Z,2.25
2023-01-30T12:06:30.045Z,2.07
2023-01-30T12:09:35.596Z,1.96
2023-01-30T12:12:47.024Z,1.91
2023-01-30T12:15:57.182Z,2.01
2023-01-30T12:19:12.988Z,1.82
2023-01-30T12:22:39.282Z,2.01
2023-01-30T12:25:57.206Z,1.92
2023-01-30T12:29:23.875Z,1.86
2023-01-30T12:32:28.970Z,2.00
2023-01-30T12:35:40.402Z,1.97
2023-01-30T12:38:55.307Z,2.05
2023-01-30T12:42:25.159Z,2.08
2023-01-30T12:45:32.782Z,1.86
2023-01-30T12:49:11.066Z,2.00
2023-01-30T12:52:46.748Z,2.06
2023-01-30T12:56:02.864Z,2.14
2023-01-30T12:59:48.436Z,2.21
2023-01-30T13:03:26.419Z,2.08
2023-01-30T13:07:13.644Z,2.22
2023-01-30T13:10:16.728Z,2.24
2023-01-30T13:13:44.943Z,2.36
2023-01-30T13:17:09.310Z,2.34
2023-01-30T13:20:25.370Z,2.43
2023-01-30T13:23:39.719Z,2.45
2023-01-30T13:26:44.064Z,2.29
2023-01-30T13:29:48.747Z,2.39
2023-01-30T13:32:56.858Z,2.31
2023-01-30T13:36:02.265Z,2.33
2023-01-30T13:39:33.149Z,2.13
2023-01-30T13:42:35.486Z,2.11
2023-01-30T13:45:43.418Z,2.24
2023-01-30T13:49:29.652Z,2.25
2023-01-30T13:52:50.248Z,2.46
2023-01-30T13:56:39.843Z,2.48
2023-01-30T14:00:17.831Z,2.44
2023-01-30T14:03:30.525Z,2.56
2023-01-30T14:06:34.518Z,2.37
2023-01-30T14:09:37.423Z,2.52
2023-01-30T14:12:41.402Z,2.58
2023-01-30T14:16:07.494Z,2.60
2023-01-30T14:19:37.683Z,2.59
2023-01-30T14:23:29.774Z,2.43
2023-01-30T14:26:50.601Z,2.37
2023-01-30T14:29:54.838Z,2.53
2023-01-30T14:33:02.283Z,2.38
2023-01-30T14:36:04.913Z,2.49
2023-01-30T14:39:38.862Z,2.55
2023-01-30T14:42:41.612Z,2.48
2023-01-30T14:45:58.449Z,2.38
2023-01-30T14:49:13.525Z,2.38
2023-01-30T14:52:38.027Z,2.20
2023-01-30T14:55:40.824Z,2.20
2023-01-30T14:59:02.823Z,2.09
2023-01-30T15:02:14.677Z,2.08
2023-01-30T15:05:26.327Z,2.07
2023-01-30T15:08:29.111Z,2.05
2023-01-30T15:11:34.742Z,2.00
2023-01-30T15:15:19.184Z,2.07
2023-01-30T15:18:49.148Z,2.12
2023-01-30T15:22:04.050Z,2.05
2023-01-30T15:25:33.523Z,2.22
2023-01-30T15:29:08.807Z,2.27
2023-01-30T15:32:23.898Z,2.30
2023-01-30T15:35:28.341Z,2.19
2023-01-30T15:38:33.269Z,2.34
2023-01-30T15:41:42.874Z,2.39
2023-01-30T15:45:21.393Z,2.36
2023-01-30T15:48:50.061Z,2.40
2023-01-30T15:51:53.513Z,2.50
2023-01-30T15:54:59.852Z,2.36
2023-01-30T15:58:20.745Z,2.15
2023-01-30T16:01:23.961Z,1.95
2023-01-30T16:04:30.005Z,1.89
2023-01-30T16:07:33.232Z,1.86
2023-01-30T16:10:44.742Z,1.74
2023-01-30T16:13:47.158Z,1.81
2023-01-30T16:16:59.298Z,1.84
2023-01-30T16:20:02.987Z,1.92
2023-01-30T16:23:23.814Z,1.88
2023-01-30T16:26:27.668Z,1.90
2023-01-30T16:29:33.578Z,1.72
2023-01-30T16:32:36.787Z,1.88
2023-01-30T16:35:45.887Z,1.85
2023-01-30T16:38:50.284Z,1.76
2023-01-30T16:41:57.288Z,1.70
2023-01-30T16:45:19.666Z,1.63
2023-01-30T16:48:33.619Z,1.71
2023-01-30T16:51:36.107Z,1.60
2023-01-30T16:54:41.263Z,1.57
2023-01-30T16:58:00.848Z,1.61
2023-01-30T17:01:07.073Z,1.71
2023-01-30T17:04:18.933Z,1.72
2023-01-30T17:07:35.162Z,1.68
2023-01-30T17:10:37.477Z,1.89
2023-01-30T17:13:43.051Z,1.97
2023-01-30T17:16:46.711Z,1.93
2023-01-30T17:19:49.416Z,1.88
2023-01-30T17:22:57.780Z,2.12
2023-01-30T17:26:01.047Z,2.25
2023-01-30T17:29:03.484Z,2.32
2023-01-30T17:32:11.528Z,2.24
2023-01-30T17:35:14.074Z,2.28
2023-01-30T17:38:16.811Z,2.26
2023-01-30T17:41:20.727Z,2.46
2023-01-30T17:44:23.565Z,2.47
2023-01-30T17:47:25.929Z,2.34
2023-01-30T17:50:28.672Z,2.49
2023-01-30T17:53:31.091Z,2.57
2023-01-30T17:56:38.320Z,2.43
2023-01-30T17:59:40.875Z,2.65
2023-01-30T18:02:43.648Z,2.68
2023-01-30T18:05:46.477Z,2.75
2023-01-30T18:08:48.892Z,2.85
2023-01-30T18:11:51.820Z,2.79
2023-01-30T18:14:54.203Z,2.96
2023-01-30T18:17:56.981Z,2.99
2023-01-30T18:20:59.337Z,2.98
2023-01-30T18:24:02.701Z,3.00
2023-01-30T18:27:05.084Z,2.96
2023-01-30T18:30:08.290Z,3.05
2023-01-30T18:33:10.625Z,3.01
2023-01-30T18:36:16.230Z,2.90
2023-01-30T18:39:18.651Z,2.98
2023-01-30T18:42:21.392Z,2.92
2023-01-30T18:45:23.725Z,2.94
2023-01-30T18:48:26.333Z,2.96
2023-01-30T18:51:34.130Z,3.05
2023-01-30T18:54:37.593Z,3.03
2023-01-30T18:57:40.040Z,2.96
2023-01-30T19:00:42.681Z,2.95
2023-01-30T19:03:45.097Z,3.08
2023-01-30T19:06:49.286Z,3.00
2023-01-30T19:09:51.651Z,3.12
2023-01-30T19:13:12.863Z,3.11
2023-01-30T19:16:15.224Z,2.98
2023-01-30T19:19:18.471Z,3.16
2023-01-30T19:22:21.257Z,3.17
2023-01-30T19:25:23.935Z,3.05
2023-01-30T19:28:27.080Z,3.23
2023-01-30T19:31:29.976Z,3.24
2023-01-30T19:34:32.359Z,3.29
2023-01-30T19:37:35.004Z,3.15
2023-01-30T19:40:45.670Z,3.22
2023-01-30T19:43:49.258Z,3.49
2023-01-30T19:46:51.767Z,3.52
2023-01-30T19:49:55.789Z,3.64
2023-01-30T19:52:58.208Z,3.64
2023-01-30T19:56:01.289Z,3.73
2023-01-30T19:59:04.214Z,3.76
2023-01-30T20:02:06.943Z,3.73
2023-01-30T20:05:10.333Z,3.64
2023-01-30T20:08:25.616Z,3.61
2023-01-30T20:11:36.285Z,3.64
2023-01-30T20:14:38.578Z,3.55
2023-01-30T20:17:41.346Z,3.74
2023-01-30T20:20:43.713Z,3.73
2023-01-30T20:23:46.961Z,3.73
2023-01-30T20:26:49.444Z,3.73
2023-01-30T20:29:53.268Z,3.77
2023-01-30T20:32:55.722Z,3.76
2023-01-30T20:36:02.663Z,3.62
2023-01-30T20:39:07.561Z,3.64
2023-01-30T20:42:10.431Z,3.75
2023-01-30T20:45:12.877Z,3.78
2023-01-30T20:48:15.499Z,3.81
2023-01-30T20:51:20.219Z,3.79
2023-01-30T20:54:24.412Z,3.79
2023-01-30T20:57:27.318Z,3.79
2023-01-30T21:00:30.215Z,3.72
2023-01-30T21:03:32.628Z,3.70
2023-01-30T21:06:44.219Z,3.63
2023-01-30T21:09:47.847Z,3.54
2023-01-30T21:12:52.674Z,3.79
2023-01-30T21:16:05.159Z,3.80
2023-01-30T21:19:12.940Z,3.83
2023-01-30T21:22:16.634Z,3.88
2023-01-30T21:25:20.174Z,3.76
2023-01-30T21:28:22.938Z,3.79
2023-01-30T21:31:27.733Z,3.90
2023-01-30T21:34:30.176Z,3.70
2023-01-30T21:37:51.692Z,3.52
2023-01-30T21:41:12.804Z,3.34
2023-01-30T21:44:15.537Z,3.30
2023-01-30T21:47:17.884Z,3.26
2023-01-30T21:50:20.984Z,3.11
2023-01-30T21:53:23.463Z,3.19
2023-01-30T21:56:27.515Z,3.07
2023-01-30T21:59:31.486Z,3.13
2023-01-30T22:02:34.074Z,3.16
2023-01-30T22:05:36.952Z,3.28
2023-01-30T22:08:42.654Z,3.29
2023-01-30T22:11:46.270Z,3.32
2023-01-30T22:14:48.815Z,3.45
2023-01-30T22:17:51.726Z,3.39
2023-01-30T22:20:54.416Z,3.57
2023-01-30T22:23:58.215Z,3.42
2023-01-30T22:27:00.553Z,3.57
2023-01-30T22:30:03.550Z,3.45
2023-01-30T22:33:05.912Z,3.55
2023-01-30T22:36:08.763Z,3.54
2023-01-30T22:39:11.219Z,3.59
2023-01-30T22:42:13.867Z,3.54
2023-01-30T22:45:16.565Z,3.59
2023-01-30T22:48:19.550Z,3.46
2023-01-30T22:51:24.412Z,3.58
2023-01-30T22:54:27.537Z,3.56
2023-01-30T22:57:29.838Z,3.64
2023-01-30T23:00:32.499Z,3.81
2023-01-30T23:03:36.006Z,3.70
2023-01-30T23:06:39.499Z,3.71
2023-01-30T23:09:41.827Z,3.82
2023-01-30T23:13:03.060Z,3.83
2023-01-30T23:16:06.664Z,3.82
2023-01-30T23:19:11.916Z,3.81
2023-01-30T23:22:14.220Z,3.85
2023-01-30T23:25:16.828Z,3.73
2023-01-30T23:28:19.186Z,3.68
2023-01-30T23:31:24.293Z,3.90
2023-01-30T23:34:26.723Z,3.71
2023-01-30T23:37:49.996Z,3.69
2023-01-30T23:40:52.429Z,3.85
2023-01-30T23:43:56.067Z,3.63
2023-01-30T23:46:58.414Z,3.61
2023-01-30T23:50:01.036Z,3.44
2023-01-30T23:53:04.673Z,3.37
2023-01-30T23:56:08.132Z,3.36
2023-01-30T23:59:11.689Z,3.15
